Time;durP1;ratioP1;P1;durP2;ratioP2;P2;SDS_P1;SDS_P2;PMS_P1;PMS_P2;Temp;Humidity;BMP_temperature;BMP_pressure;BME280_temperature;BME280_humidity;BME280_pressure;Samples;Min_cycle;Max_cycle;Signal;HPM_P1;HPM_P2
2022/05/10 00:01:40;;;;;;;8.95;5.72;;;;;;;;;;5052652;28;20056;-76
2022/05/10 00:04:07;;;;;;;8.82;5.78;;;;;;;;;;5033989;28;20521;-77
2022/05/10 00:06:37;;;;;;;10.75;6.00;;;;;;;;;;5052200;28;20024;-77
2022/05/10 00:09:05;;;;;;;9.63;6.15;;;;;;;;;;5051437;28;20037;-76
2022/05/10 00:11:30;;;;;;;10.55;6.63;;;;;;;;;;5052822;28;20028;-77
2022/05/10 00:13:56;;;;;;;14.63;6.82;;;;;;;;;;5052324;28;20031;-78
2022/05/10 00:16:22;;;;;;;11.55;7.22;;;;;;;;;;5052558;28;20029;-76
2022/05/10 00:18:48;;;;;;;10.55;6.50;;;;;;;;;;5052707;28;20021;-76
2022/05/10 00:21:17;;;;;;;10.95;6.80;;;;;;;;;;5051153;28;20116;-76
2022/05/10 00:23:42;;;;;;;13.43;6.80;;;;;;;;;;5051932;28;20052;-76
2022/05/10 00:26:08;;;;;;;11.02;6.78;;;;;;;;;;5052002;28;20056;-77
2022/05/10 00:28:33;;;;;;;12.05;6.22;;;;;;;;;;5052767;28;20024;-77
2022/05/10 00:30:59;;;;;;;11.65;7.35;;;;;;;;;;5052276;28;20029;-77
2022/05/10 00:33:28;;;;;;;10.70;7.05;;;;;;;;;;5051830;28;20024;-77
2022/05/10 00:35:55;;;;;;;10.63;6.93;;;;;;;;;;5050660;28;20041;-76
2022/05/10 00:38:24;;;;;;;11.45;7.00;;;;;;;;;;5050223;28;20380;-78
2022/05/10 00:40:49;;;;;;;12.82;6.93;;;;;;;;;;5051920;28;20036;-77
2022/05/10 00:43:37;;;;;;;11.68;7.07;;;;;;;;;;5051324;28;20020;-77
2022/05/10 00:46:07;;;;;;;12.30;6.55;;;;;;;;;;5050792;28;20028;-77
2022/05/10 00:48:47;;;;;;;10.32;7.38;;;;;;;;;;5050302;28;20035;-76
2022/05/10 00:51:48;;;;;;;11.40;7.88;;;;;;;;;;5050381;28;20021;-76
2022/05/10 00:54:39;;;;;;;11.50;6.85;;;;;;;;;;5011724;28;20033;-77
2022/05/10 00:57:27;;;;;;;10.85;7.45;;;;;;;;;;5050118;28;20061;-76
2022/05/10 01:00:12;;;;;;;10.77;6.88;;;;;;;;;;5051912;28;20091;-77
2022/05/10 01:02:46;;;;;;;10.30;6.15;;;;;;;;;;5051518;28;20021;-77
2022/05/10 01:05:34;;;;;;;9.77;6.75;;;;;;;;;;5050617;28;20044;-77
2022/05/10 01:08:11;;;;;;;10.00;6.55;;;;;;;;;;5050131;28;20024;-76
2022/05/10 01:10:37;;;;;;;11.27;7.28;;;;;;;;;;5051975;28;20036;-77
2022/05/10 01:13:18;;;;;;;12.77;7.07;;;;;;;;;;5050244;28;20116;-77
2022/05/10 01:15:52;;;;;;;12.13;7.65;;;;;;;;;;5049601;28;20116;-76
2022/05/10 01:18:22;;;;;;;9.70;6.65;;;;;;;;;;5051786;28;20033;-76
2022/05/10 01:20:49;;;;;;;12.13;7.72;;;;;;;;;;5066982;28;20110;-76
2022/05/10 01:23:38;;;;;;;11.85;7.28;;;;;;;;;;5049861;28;20029;-76
2022/05/10 01:26:08;;;;;;;10.68;7.03;;;;;;;;;;5030939;28;20017;-77
2022/05/10 01:28:41;;;;;;;11.18;7.47;;;;;;;;;;5031159;28;20035;-77
2022/05/10 01:31:14;;;;;;;11.00;7.60;;;;;;;;;;5014028;28;20127;-77
2022/05/10 01:33:52;;;;;;;9.93;7.10;;;;;;;;;;5029862;28;20048;-76
2022/05/10 01:36:25;;;;;;;10.82;7.00;;;;;;;;;;5031396;28;20056;-75
2022/05/10 01:39:09;;;;;;;12.85;7.90;;;;;;;;;;5019512;28;20400;-76
2022/05/10 01:42:07;;;;;;;11.10;7.20;;;;;;;;;;5049841;28;20117;-76
2022/05/10 01:44:32;;;;;;;10.88;7.50;;;;;;;;;;5050170;28;20027;-77
2022/05/10 01:47:06;;;;;;;12.18;8.43;;;;;;;;;;5051295;28;20476;-76
2022/05/10 01:49:44;;;;;;;23.90;6.97;;;;;;;;;;5050710;28;20029;-76
2022/05/10 01:52:23;;;;;;;14.25;7.50;;;;;;;;;;5049030;28;20483;-75
2022/05/10 01:55:01;;;;;;;13.48;7.63;;;;;;;;;;5049298;28;20027;-77
2022/05/10 01:57:29;;;;;;;14.00;7.63;;;;;;;;;;5049564;28;20031;-76
2022/05/10 02:00:10;;;;;;;9.85;6.80;;;;;;;;;;5049272;28;20473;-74
2022/05/10 02:02:41;;;;;;;12.77;7.50;;;;;;;;;;5048895;28;20035;-75
2022/05/10 02:05:11;;;;;;;8.73;6.93;;;;;;;;;;5050449;28;20075;-76
2022/05/10 02:07:41;;;;;;;10.63;7.20;;;;;;;;;;5049138;28;20031;-76
2022/05/10 02:10:18;;;;;;;12.27;7.45;;;;;;;;;;5050175;28;20029;-76
2022/05/10 02:12:52;;;;;;;9.05;6.88;;;;;;;;;;5048936;28;20033;-75
2022/05/10 02:15:25;;;;;;;10.98;7.50;;;;;;;;;;5049101;28;20026;-76
2022/05/10 02:18:10;;;;;;;15.60;8.15;;;;;;;;;;5051052;28;20493;-76
2022/05/10 02:21:20;;;;;;;12.13;7.57;;;;;;;;;;5049965;28;20473;-75
2022/05/10 02:23:48;;;;;;;12.23;7.63;;;;;;;;;;5048642;28;20037;-75
2022/05/10 02:26:21;;;;;;;11.63;7.65;;;;;;;;;;5048497;28;20607;-77
2022/05/10 02:29:13;;;;;;;11.95;7.43;;;;;;;;;;5053804;28;20029;-75
2022/05/10 02:34:35;;;;;;;11.05;8.18;;;;;;;;;;5054496;28;20500;-76
2022/05/10 02:37:01;;;;;;;11.95;7.97;;;;;;;;;;5052671;28;20044;-75
2022/05/10 02:39:26;;;;;;;9.63;7.80;;;;;;;;;;5053194;28;20021;-76
2022/05/10 02:41:52;;;;;;;12.63;7.90;;;;;;;;;;5054046;28;20029;-76
2022/05/10 02:44:18;;;;;;;8.95;7.88;;;;;;;;;;5054422;28;20437;-75
2022/05/10 02:46:44;;;;;;;9.40;6.63;;;;;;;;;;5036281;28;20021;-76
2022/05/10 02:49:10;;;;;;;12.82;7.63;;;;;;;;;;5053906;28;20037;-78
2022/05/10 02:51:35;;;;;;;12.15;8.25;;;;;;;;;;5052166;28;20029;-75
2022/05/10 02:54:01;;;;;;;13.20;7.15;;;;;;;;;;5052522;28;20060;-75
2022/05/10 02:56:29;;;;;;;10.10;7.15;;;;;;;;;;5053169;28;20104;-77
2022/05/10 02:59:13;;;;;;;11.77;8.57;;;;;;;;;;5052769;28;20043;-76
2022/05/10 03:02:00;;;;;;;11.63;7.47;;;;;;;;;;5053851;28;20055;-76
2022/05/10 03:04:33;;;;;;;13.55;9.02;;;;;;;;;;5052442;28;20111;-76
2022/05/10 03:06:59;;;;;;;12.68;8.45;;;;;;;;;;5053761;28;20147;-77
2022/05/10 03:09:25;;;;;;;14.43;8.20;;;;;;;;;;5053498;28;20037;-76
2022/05/10 03:11:51;;;;;;;8.57;7.60;;;;;;;;;;5053121;28;20029;-75
2022/05/10 03:14:17;;;;;;;11.38;8.30;;;;;;;;;;5051679;28;20522;-78
2022/05/10 03:16:42;;;;;;;15.93;8.75;;;;;;;;;;5052254;28;20021;-77
2022/05/10 03:19:08;;;;;;;9.55;7.38;;;;;;;;;;5051395;28;20409;-76
2022/05/10 03:21:38;;;;;;;13.85;7.97;;;;;;;;;;5052486;28;20103;-77
2022/05/10 03:24:04;;;;;;;13.65;8.45;;;;;;;;;;5052330;28;20431;-77
2022/05/10 03:26:30;;;;;;;9.52;7.22;;;;;;;;;;5052628;28;20029;-75
2022/05/10 03:28:56;;;;;;;16.48;7.65;;;;;;;;;;5033173;28;20500;-75
2022/05/10 03:31:25;;;;;;;15.23;8.20;;;;;;;;;;5033360;28;20030;-76
2022/05/10 03:36:34;;;;;;;12.75;8.63;;;;;;;;;;5032509;28;20056;-75
2022/05/10 03:39:00;;;;;;;11.20;8.07;;;;;;;;;;5032612;28;20025;-76
2022/05/10 03:41:26;;;;;;;15.10;7.83;;;;;;;;;;5048234;28;20032;-77
2022/05/10 03:43:51;;;;;;;11.17;8.23;;;;;;;;;;5053587;28;20106;-76
2022/05/10 03:46:17;;;;;;;12.68;7.63;;;;;;;;;;5054223;28;20025;-77
2022/05/10 03:48:44;;;;;;;13.35;8.27;;;;;;;;;;5053180;28;20071;-77
2022/05/10 03:51:10;;;;;;;15.68;11.63;;;;;;;;;;5053443;28;20021;-76
2022/05/10 03:53:35;;;;;;;13.35;8.68;;;;;;;;;;5053468;28;20477;-77
2022/05/10 03:56:01;;;;;;;14.82;7.90;;;;;;;;;;5052339;28;20048;-76
2022/05/10 03:58:27;;;;;;;11.02;7.68;;;;;;;;;;5051627;28;20040;-76
2022/05/10 04:00:52;;;;;;;11.10;8.00;;;;;;;;;;5053585;28;20028;-76
2022/05/10 04:03:18;;;;;;;10.73;7.43;;;;;;;;;;5052807;28;20035;-76
2022/05/10 04:05:43;;;;;;;20.50;8.13;;;;;;;;;;5051374;28;20012;-76
2022/05/10 04:08:09;;;;;;;11.97;8.57;;;;;;;;;;5050919;28;20540;-76
2022/05/10 04:10:34;;;;;;;19.20;10.45;;;;;;;;;;5049904;28;20204;-75
2022/05/10 04:13:00;;;;;;;14.27;7.80;;;;;;;;;;5034277;28;20183;-76
2022/05/10 04:15:25;;;;;;;12.85;7.90;;;;;;;;;;5034012;28;20051;-76
2022/05/10 04:17:52;;;;;;;11.95;8.20;;;;;;;;;;5052168;28;20404;-77
2022/05/10 04:20:17;;;;;;;15.77;8.03;;;;;;;;;;5052256;28;20021;-75
2022/05/10 04:22:43;;;;;;;13.05;8.65;;;;;;;;;;5051814;28;20025;-74
2022/05/10 04:25:11;;;;;;;13.73;8.37;;;;;;;;;;5051488;28;20029;-76
2022/05/10 04:27:37;;;;;;;12.40;8.00;;;;;;;;;;5050686;28;20044;-75
2022/05/10 04:30:04;;;;;;;10.68;8.70;;;;;;;;;;5052513;28;20435;-78
2022/05/10 04:32:30;;;;;;;11.87;8.20;;;;;;;;;;5052386;28;20033;-77
2022/05/10 04:34:55;;;;;;;13.37;7.37;;;;;;;;;;5051233;28;20039;-76
2022/05/10 04:37:21;;;;;;;11.07;7.63;;;;;;;;;;5033668;28;20041;-76
2022/05/10 04:42:30;;;;;;;16.70;9.40;;;;;;;;;;5051172;28;20126;-76
2022/05/10 04:44:56;;;;;;;14.73;8.85;;;;;;;;;;5066393;28;20063;-75
2022/05/10 04:47:21;;;;;;;11.43;7.93;;;;;;;;;;5049632;28;20075;-75
2022/05/10 04:49:47;;;;;;;14.70;8.23;;;;;;;;;;5050712;28;20102;-76
2022/05/10 04:52:12;;;;;;;13.97;7.83;;;;;;;;;;5049840;28;20528;-75
2022/05/10 04:54:39;;;;;;;14.13;9.00;;;;;;;;;;5049380;28;20431;-75
2022/05/10 04:57:06;;;;;;;11.65;7.97;;;;;;;;;;5049359;28;20053;-76
2022/05/10 04:59:31;;;;;;;12.33;8.20;;;;;;;;;;5050509;28;20021;-76
2022/05/10 05:01:57;;;;;;;16.87;8.80;;;;;;;;;;5051655;28;20027;-77
2022/05/10 05:04:22;;;;;;;16.60;8.57;;;;;;;;;;5053405;28;20541;-75
2022/05/10 05:06:51;;;;;;;10.13;8.02;;;;;;;;;;5033718;28;20272;-75
2022/05/10 05:09:17;;;;;;;18.57;9.43;;;;;;;;;;5053561;28;20021;-76
2022/05/10 05:11:42;;;;;;;16.77;8.57;;;;;;;;;;5049368;28;20521;-75
2022/05/10 05:14:10;;;;;;;12.10;8.50;;;;;;;;;;5034442;28;20048;-77
2022/05/10 05:16:36;;;;;;;15.07;8.95;;;;;;;;;;5034141;28;20117;-78
2022/05/10 05:19:02;;;;;;;14.10;8.38;;;;;;;;;;5053249;28;20516;-78
2022/05/10 05:21:29;;;;;;;13.30;8.63;;;;;;;;;;5052571;28;20515;-77
2022/05/10 05:23:58;;;;;;;17.13;8.75;;;;;;;;;;5051927;28;20052;-77
2022/05/10 05:26:24;;;;;;;13.68;8.30;;;;;;;;;;5048982;28;20021;-76
2022/05/10 05:28:50;;;;;;;13.27;8.98;;;;;;;;;;5040376;28;20123;-80
2022/05/10 05:31:17;;;;;;;13.70;9.07;;;;;;;;;;5032989;28;20117;-76
2022/05/10 05:33:44;;;;;;;16.63;9.68;;;;;;;;;;5049682;28;20283;-77
2022/05/10 05:36:09;;;;;;;12.23;8.02;;;;;;;;;;5049196;28;20064;-75
2022/05/10 05:38:35;;;;;;;11.13;7.80;;;;;;;;;;5032046;28;20476;-77
2022/05/10 05:41:01;;;;;;;14.32;9.30;;;;;;;;;;5046803;28;20461;-76
2022/05/10 05:43:27;;;;;;;15.73;8.02;;;;;;;;;;5040476;28;20465;-77
2022/05/10 05:45:53;;;;;;;11.27;8.27;;;;;;;;;;5030221;28;20037;-76
2022/05/10 05:48:19;;;;;;;14.70;8.80;;;;;;;;;;5034535;28;20029;-77
2022/05/10 05:50:45;;;;;;;13.43;9.50;;;;;;;;;;5045924;28;20032;-76
2022/05/10 05:53:12;;;;;;;11.00;8.52;;;;;;;;;;5047597;28;20021;-78
2022/05/10 05:55:40;;;;;;;15.52;9.10;;;;;;;;;;5028390;28;20045;-79
2022/05/10 05:58:05;;;;;;;13.50;8.90;;;;;;;;;;5043875;28;20032;-77
2022/05/10 06:00:31;;;;;;;16.95;9.43;;;;;;;;;;5024685;28;20477;-77
2022/05/10 06:02:56;;;;;;;13.70;9.68;;;;;;;;;;5049062;28;20040;-77
2022/05/10 06:05:24;;;;;;;15.98;10.75;;;;;;;;;;5048920;28;20036;-77
2022/05/10 06:07:51;;;;;;;16.95;10.13;;;;;;;;;;5028555;28;20025;-75
2022/05/10 06:10:16;;;;;;;19.20;10.27;;;;;;;;;;5052156;28;20521;-76
2022/05/10 06:12:43;;;;;;;19.98;10.68;;;;;;;;;;5031829;28;20025;-81
2022/05/10 06:15:15;;;;;;;20.42;10.02;;;;;;;;;;5052623;28;20032;-77
2022/05/10 06:17:44;;;;;;;26.45;15.40;;;;;;;;;;5053914;28;20087;-77
2022/05/10 06:20:12;;;;;;;13.80;10.10;;;;;;;;;;5050659;28;20028;-78
2022/05/10 06:22:43;;;;;;;13.85;9.85;;;;;;;;;;5051650;28;20435;-80
2022/05/10 06:25:10;;;;;;;20.67;10.05;;;;;;;;;;5053334;28;20032;-78
2022/05/10 06:27:35;;;;;;;14.57;10.07;;;;;;;;;;5059292;28;20037;-78
2022/05/10 06:30:01;;;;;;;17.45;10.10;;;;;;;;;;5049890;28;20021;-79
2022/05/10 06:32:27;;;;;;;14.75;9.60;;;;;;;;;;5050051;28;20040;-79
2022/05/10 06:34:54;;;;;;;16.27;9.27;;;;;;;;;;5033013;28;20206;-78
2022/05/10 06:40:14;;;;;;;19.73;10.50;;;;;;;;;;5054050;28;20087;-78
2022/05/10 06:42:41;;;;;;;16.05;9.90;;;;;;;;;;5031423;28;20361;-76
2022/05/10 06:45:09;;;;;;;16.60;10.43;;;;;;;;;;5051051;28;20132;-81
2022/05/10 06:47:37;;;;;;;18.08;9.18;;;;;;;;;;5032201;28;20476;-78
2022/05/10 06:50:04;;;;;;;14.35;9.05;;;;;;;;;;5045574;28;20028;-78
2022/05/10 06:52:30;;;;;;;19.00;10.00;;;;;;;;;;5043986;28;20024;-80
2022/05/10 06:54:57;;;;;;;19.63;10.07;;;;;;;;;;5040698;28;20037;-77
2022/05/10 06:57:23;;;;;;;17.70;10.48;;;;;;;;;;5031136;28;20325;-77
2022/05/10 06:59:48;;;;;;;21.90;10.07;;;;;;;;;;5046464;28;20033;-79
2022/05/10 07:02:14;;;;;;;18.27;9.80;;;;;;;;;;5044652;28;20043;-79
2022/05/10 07:04:39;;;;;;;15.27;8.57;;;;;;;;;;5046138;28;20021;-80
2022/05/10 07:07:05;;;;;;;14.43;9.27;;;;;;;;;;5040426;28;20036;-78
2022/05/10 07:09:31;;;;;;;14.00;8.23;;;;;;;;;;5021439;28;20049;-78
2022/05/10 07:11:56;;;;;;;13.43;8.68;;;;;;;;;;5025356;28;20033;-79
2022/05/10 07:14:28;;;;;;;17.02;9.68;;;;;;;;;;5043567;28;20188;-79
2022/05/10 07:16:54;;;;;;;14.85;9.27;;;;;;;;;;5046653;28;20029;-78
2022/05/10 07:19:20;;;;;;;18.98;9.75;;;;;;;;;;5024060;28;20037;-78
2022/05/10 07:21:48;;;;;;;17.08;9.57;;;;;;;;;;5039632;28;20825;-80
2022/05/10 07:24:16;;;;;;;16.33;9.68;;;;;;;;;;5029738;28;20040;-78
2022/05/10 07:26:46;;;;;;;16.33;9.23;;;;;;;;;;5043897;28;20025;-79
2022/05/10 07:29:15;;;;;;;15.35;10.40;;;;;;;;;;5047025;28;20052;-80
2022/05/10 07:31:41;;;;;;;34.47;14.43;;;;;;;;;;5031264;28;20058;-81
2022/05/10 07:34:11;;;;;;;15.15;10.02;;;;;;;;;;5049602;28;20056;-80
2022/05/10 07:36:38;;;;;;;24.23;10.93;;;;;;;;;;5048689;28;20044;-79
2022/05/10 07:39:07;;;;;;;17.17;8.82;;;;;;;;;;5028379;28;20033;-78
2022/05/10 07:41:34;;;;;;;16.15;9.02;;;;;;;;;;5043393;28;20091;-78
2022/05/10 07:44:00;;;;;;;15.85;9.00;;;;;;;;;;5045652;28;20029;-76
2022/05/10 07:46:26;;;;;;;19.15;9.90;;;;;;;;;;5043472;28;20069;-78
2022/05/10 07:48:52;;;;;;;12.85;9.10;;;;;;;;;;5026247;28;20067;-77
2022/05/10 07:51:18;;;;;;;15.18;8.60;;;;;;;;;;5039821;28;20081;-78
2022/05/10 07:53:45;;;;;;;14.98;8.57;;;;;;;;;;5026673;28;20036;-79
2022/05/10 07:56:10;;;;;;;13.73;7.82;;;;;;;;;;5045484;28;20496;-76
2022/05/10 07:58:36;;;;;;;14.00;8.73;;;;;;;;;;5040726;28;20036;-77
2022/05/10 08:01:04;;;;;;;11.55;8.02;;;;;;;;;;5041072;28;20039;-79
2022/05/10 08:03:30;;;;;;;22.85;8.43;;;;;;;;;;5034978;28;20025;-79
2022/05/10 08:05:56;;;;;;;12.38;7.65;;;;;;;;;;5042689;28;20021;-77
2022/05/10 08:08:23;;;;;;;12.43;7.40;;;;;;;;;;5030917;28;20434;-78
2022/05/10 08:10:50;;;;;;;12.38;7.22;;;;;;;;;;5041137;28;20036;-82
2022/05/10 08:13:20;;;;;;;16.48;7.35;;;;;;;;;;5031287;28;20046;-78
2022/05/10 08:15:46;;;;;;;9.73;6.85;;;;;;;;;;5044384;28;20040;-77
2022/05/10 08:18:13;;;;;;;11.68;7.38;;;;;;;;;;5025839;28;20121;-80
2022/05/10 08:20:40;;;;;;;7.68;6.68;;;;;;;;;;5040333;28;20813;-80
2022/05/10 08:23:06;;;;;;;13.20;7.07;;;;;;;;;;5037835;28;20049;-80
2022/05/10 08:25:33;;;;;;;9.82;6.32;;;;;;;;;;5045193;28;20021;-78
2022/05/10 08:28:02;;;;;;;14.60;7.25;;;;;;;;;;5027948;28;20065;-78
2022/05/10 08:30:30;;;;;;;13.10;7.07;;;;;;;;;;5045384;28;20073;-78
2022/05/10 08:33:05;;;;;;;12.63;7.85;;;;;;;;;;5043143;28;20031;-81
2022/05/10 08:35:42;;;;;;;14.73;6.85;;;;;;;;;;5047468;28;20025;-78
2022/05/10 08:38:08;;;;;;;10.13;6.38;;;;;;;;;;5046297;28;20087;-78
2022/05/10 08:41:09;;;;;;;11.48;6.47;;;;;;;;;;5046471;28;20033;-80
2022/05/10 08:43:47;;;;;;;13.88;7.40;;;;;;;;;;5023603;28;20518;-83
2022/05/10 08:46:19;;;;;;;9.95;6.18;;;;;;;;;;5043323;28;20573;-79
2022/05/10 08:48:47;;;;;;;7.80;5.43;;;;;;;;;;5044912;28;20708;-78
2022/05/10 08:51:13;;;;;;;11.95;5.82;;;;;;;;;;5042516;28;20036;-80
2022/05/10 08:53:39;;;;;;;8.55;5.97;;;;;;;;;;5043094;28;20037;-81
2022/05/10 08:56:29;;;;;;;11.45;5.57;;;;;;;;;;5045993;28;20495;-82
2022/05/10 08:59:06;;;;;;;8.05;5.35;;;;;;;;;;5045443;28;20041;-79
2022/05/10 09:01:39;;;;;;;11.23;5.65;;;;;;;;;;5043177;28;20128;-80
2022/05/10 09:04:44;;;;;;;10.98;5.18;;;;;;;;;;5038689;28;20033;-80
2022/05/10 09:07:38;;;;;;;27.23;8.45;;;;;;;;;;5045049;28;20029;-79
2022/05/10 09:10:20;;;;;;;10.85;5.47;;;;;;;;;;5045257;28;20033;-77
2022/05/10 09:12:53;;;;;;;10.98;5.40;;;;;;;;;;5043586;28;20048;-80
2022/05/10 09:15:22;;;;;;;13.73;4.95;;;;;;;;;;5044991;28;20028;-78
2022/05/10 09:17:50;;;;;;;8.48;5.15;;;;;;;;;;5043737;28;20044;-81
2022/05/10 09:20:16;;;;;;;10.20;4.50;;;;;;;;;;5045164;28;20025;-81
2022/05/10 09:22:48;;;;;;;8.63;5.05;;;;;;;;;;5025792;28;20025;-76
2022/05/10 09:25:36;;;;;;;15.05;6.18;;;;;;;;;;5042270;28;20372;-79
2022/05/10 09:28:29;;;;;;;7.20;4.07;;;;;;;;;;5027764;28;20032;-80
2022/05/10 09:36:38;;;;;;;4.65;3.70;;;;;;;;;;5003181;28;20446;-79
2022/05/10 09:39:20;;;;;;;7.07;4.30;;;;;;;;;;5034906;28;20071;-78
2022/05/10 09:41:51;;;;;;;6.25;3.88;;;;;;;;;;5043325;28;20043;-78
2022/05/10 09:44:27;;;;;;;4.30;3.55;;;;;;;;;;5034548;28;20029;-79
2022/05/10 09:47:12;;;;;;;5.35;3.50;;;;;;;;;;5044280;28;20029;-78
2022/05/10 09:49:41;;;;;;;6.22;3.45;;;;;;;;;;5043305;28;20166;-79
2022/05/10 09:52:22;;;;;;;10.63;3.80;;;;;;;;;;5032223;28;20040;-80
2022/05/10 09:54:50;;;;;;;;;;;;;;;;;;5044195;28;20033;-78
2022/05/10 09:57:31;;;;;;;5.75;3.40;;;;;;;;;;5044602;28;19927;-79
2022/05/10 09:59:58;;;;;;;4.68;3.78;;;;;;;;;;5039585;28;20438;-80
2022/05/10 10:02:34;;;;;;;9.32;3.58;;;;;;;;;;5042935;28;20459;-79
2022/05/10 10:05:25;;;;;;;6.43;3.38;;;;;;;;;;5046167;28;20103;-78
2022/05/10 10:07:55;;;;;;;6.43;3.80;;;;;;;;;;5044350;28;20535;-79
2022/05/10 10:10:31;;;;;;;6.90;3.60;;;;;;;;;;5033244;28;20357;-78
2022/05/10 10:13:20;;;;;;;4.20;3.10;;;;;;;;;;5042993;28;20060;-79
2022/05/10 10:15:46;;;;;;;5.38;3.15;;;;;;;;;;5043202;28;20464;-81
2022/05/10 10:19:00;;;;;;;6.03;3.28;;;;;;;;;;5046006;28;20032;-82
2022/05/10 10:21:32;;;;;;;6.03;3.25;;;;;;;;;;5011593;28;20509;-79
2022/05/10 10:24:04;;;;;;;4.60;2.90;;;;;;;;;;5039294;28;20851;-79
2022/05/10 10:26:35;;;;;;;;;;;;;;;;;;5048212;28;20031;-80
2022/05/10 10:29:21;;;;;;;8.02;2.65;;;;;;;;;;5042463;28;19927;-82
2022/05/10 10:31:53;;;;;;;3.45;2.80;;;;;;;;;;5038973;28;20476;-80
2022/05/10 10:34:20;;;;;;;6.47;3.90;;;;;;;;;;5045016;28;20054;-80
2022/05/10 10:36:58;;;;;;;4.72;2.95;;;;;;;;;;5031943;28;20053;-81
2022/05/10 10:39:42;;;;;;;9.52;3.70;;;;;;;;;;5045879;28;20063;-82
2022/05/10 10:42:10;;;;;;;4.85;2.50;;;;;;;;;;5043802;28;20029;-82
2022/05/10 10:44:41;;;;;;;5.38;2.97;;;;;;;;;;5044370;28;20155;-84
2022/05/10 10:47:35;;;;;;;4.22;3.15;;;;;;;;;;5047385;28;20025;-83
2022/05/10 10:50:28;;;;;;;4.18;2.80;;;;;;;;;;5046920;28;20040;-79
2022/05/10 10:52:56;;;;;;;7.75;3.30;;;;;;;;;;5047023;28;20104;-80
2022/05/10 10:55:47;;;;;;;3.80;2.70;;;;;;;;;;5049662;28;20451;-79
2022/05/10 10:58:50;;;;;;;4.03;2.75;;;;;;;;;;5028959;28;20029;-80
2022/05/10 11:01:25;;;;;;;7.22;3.03;;;;;;;;;;5051108;28;20065;-78
2022/05/10 11:04:30;;;;;;;6.80;3.53;;;;;;;;;;5053311;28;20537;-80
2022/05/10 11:06:57;;;;;;;6.30;3.03;;;;;;;;;;5051629;28;20017;-78
2022/05/10 11:09:58;;;;;;;4.50;3.00;;;;;;;;;;5052110;28;20454;-80
2022/05/10 11:12:27;;;;;;;5.15;2.85;;;;;;;;;;5042244;28;20143;-79
2022/05/10 11:15:16;;;;;;;2.85;2.60;;;;;;;;;;5048246;28;20423;-80
2022/05/10 11:18:10;;;;;;;6.05;3.13;;;;;;;;;;5049946;28;20043;-80
2022/05/10 11:20:58;;;;;;;6.05;3.22;;;;;;;;;;5047339;28;20470;-81
2022/05/10 11:24:00;;;;;;;8.48;3.17;;;;;;;;;;5047914;28;20060;-83
2022/05/10 11:26:53;;;;;;;6.30;3.05;;;;;;;;;;5048227;28;20060;-82
2022/05/10 11:29:39;;;;;;;2.88;2.35;;;;;;;;;;5046895;28;20056;-82
2022/05/10 11:32:11;;;;;;;5.05;2.90;;;;;;;;;;5030244;28;20040;-81
2022/05/10 11:35:05;;;;;;;7.95;3.20;;;;;;;;;;5047408;28;20086;-82
2022/05/10 11:38:08;;;;;;;4.28;2.70;;;;;;;;;;5035849;28;20477;-83
2022/05/10 11:41:10;;;;;;;4.53;2.47;;;;;;;;;;5033980;28;20037;-81
2022/05/10 11:44:03;;;;;;;7.25;3.15;;;;;;;;;;5050954;28;20032;-81
2022/05/10 11:46:53;;;;;;;2.85;2.60;;;;;;;;;;5049585;28;20090;-81
2022/05/10 11:50:09;;;;;;;5.15;2.70;;;;;;;;;;5046215;28;20150;-81
2022/05/10 11:53:13;;;;;;;4.38;2.58;;;;;;;;;;5005584;28;20042;-84
2022/05/10 11:55:53;;;;;;;3.60;3.17;;;;;;;;;;5048054;28;20051;-79
2022/05/10 11:58:23;;;;;;;7.03;2.65;;;;;;;;;;5048713;28;20047;-82
2022/05/10 12:00:54;;;;;;;3.13;2.33;;;;;;;;;;5044031;28;20033;-80
2022/05/10 12:03:39;;;;;;;;;;;;;;;;;;5050147;28;20096;-79
2022/05/10 12:06:23;;;;;;;4.70;2.63;;;;;;;;;;5047228;28;19908;-81
2022/05/10 12:08:57;;;;;;;3.47;2.22;;;;;;;;;;5046530;28;20032;-84
2022/05/10 12:11:30;;;;;;;4.38;2.63;;;;;;;;;;5028081;28;20036;-79
2022/05/10 12:22:51;;;;;;;3.60;2.40;;;;;;;;;;5041112;28;20086;-81
2022/05/10 12:25:44;;;;;;;3.70;2.47;;;;;;;;;;5046366;28;20032;-81
2022/05/10 12:28:30;;;;;;;3.47;2.40;;;;;;;;;;5046619;28;20068;-82
2022/05/10 12:31:00;;;;;;;7.55;3.17;;;;;;;;;;5047660;28;20108;-84
2022/05/10 12:33:52;;;;;;;2.78;2.25;;;;;;;;;;5048148;28;20033;-82
2022/05/10 12:36:29;;;;;;;3.92;2.40;;;;;;;;;;5049396;28;20124;-82
2022/05/10 12:38:54;;;;;;;20.45;4.78;;;;;;;;;;5048933;28;20107;-81
2022/05/10 12:41:32;;;;;;;2.60;2.40;;;;;;;;;;5030142;28;20136;-85
2022/05/10 12:44:26;;;;;;;9.35;2.60;;;;;;;;;;5047434;28;20053;-83
2022/05/10 12:47:09;;;;;;;3.40;2.22;;;;;;;;;;5047510;28;20033;-84
2022/05/10 12:50:03;;;;;;;2.67;2.15;;;;;;;;;;5046819;28;20029;-82
2022/05/10 12:52:43;;;;;;;6.30;2.63;;;;;;;;;;5011022;28;20029;-81
2022/05/10 12:55:24;;;;;;;3.22;2.08;;;;;;;;;;5046900;28;20033;-82
2022/05/10 12:57:50;;;;;;;;;;;;;;;;;;5047435;28;20013;-81
2022/05/10 13:00:24;;;;;;;3.28;2.45;;;;;;;;;;5045537;28;20095;-81
2022/05/10 13:03:06;;;;;;;6.00;3.38;;;;;;;;;;5046502;28;20655;-82
2022/05/10 13:06:06;;;;;;;11.43;2.60;;;;;;;;;;5046493;28;20037;-82
2022/05/10 13:09:01;;;;;;;3.50;2.35;;;;;;;;;;5045212;28;20036;-81
2022/05/10 13:11:31;;;;;;;5.68;2.97;;;;;;;;;;5040677;28;20032;-81
2022/05/10 13:14:00;;;;;;;7.57;2.97;;;;;;;;;;5047380;28;20044;-81
2022/05/10 13:16:28;;;;;;;4.70;2.60;;;;;;;;;;5050257;28;20021;-78
2022/05/10 13:18:57;;;;;;;4.65;2.47;;;;;;;;;;5047239;28;20032;-80
2022/05/10 13:21:26;;;;;;;3.13;2.00;;;;;;;;;;5043659;28;20270;-80
2022/05/10 13:23:56;;;;;;;3.78;2.20;;;;;;;;;;5046115;28;20043;-82
2022/05/10 13:26:22;;;;;;;3.08;1.77;;;;;;;;;;5046259;28;20029;-81
2022/05/10 13:28:53;;;;;;;4.50;2.28;;;;;;;;;;5050833;28;20029;-82
2022/05/10 13:31:23;;;;;;;2.25;2.05;;;;;;;;;;5048450;28;20029;-79
2022/05/10 13:33:51;;;;;;;5.03;2.30;;;;;;;;;;5032661;28;20040;-82
2022/05/10 13:36:22;;;;;;;7.40;2.20;;;;;;;;;;5032301;28;20128;-80
2022/05/10 13:38:54;;;;;;;2.47;2.28;;;;;;;;;;5045110;28;20033;-82
2022/05/10 13:41:30;;;;;;;5.35;2.35;;;;;;;;;;5026643;28;20033;-80
2022/05/10 13:44:01;;;;;;;7.90;2.08;;;;;;;;;;5033666;28;20525;-81
2022/05/10 13:46:32;;;;;;;8.30;2.88;;;;;;;;;;5056868;28;20020;-79
2022/05/10 13:49:13;;;;;;;4.30;2.72;;;;;;;;;;5032200;28;20087;-81
2022/05/10 13:51:56;;;;;;;3.00;2.10;;;;;;;;;;5042836;28;20067;-80
2022/05/10 13:54:38;;;;;;;4.53;2.42;;;;;;;;;;5048775;28;20397;-79
2022/05/10 13:57:25;;;;;;;3.70;2.40;;;;;;;;;;5027769;28;20028;-79
2022/05/10 13:59:57;;;;;;;2.22;2.03;;;;;;;;;;5036185;28;20061;-82
2022/05/10 14:02:25;;;;;;;3.13;2.33;;;;;;;;;;5036095;28;20034;-80
2022/05/10 14:04:52;;;;;;;3.28;2.20;;;;;;;;;;5029294;28;20089;-81
2022/05/10 14:07:30;;;;;;;2.75;1.83;;;;;;;;;;5030615;28;20032;-80
2022/05/10 14:09:56;;;;;;;3.63;1.77;;;;;;;;;;5049609;28;20457;-80
2022/05/10 14:12:36;;;;;;;3.78;2.22;;;;;;;;;;5023270;28;20011;-79
2022/05/10 14:15:27;;;;;;;3.45;2.10;;;;;;;;;;5044987;28;20041;-81
2022/05/10 14:18:03;;;;;;;5.53;2.35;;;;;;;;;;5029574;28;20358;-79
2022/05/10 14:20:35;;;;;;;6.20;2.55;;;;;;;;;;5045677;28;20032;-81
2022/05/10 14:23:06;;;;;;;2.83;2.10;;;;;;;;;;5034103;28;20498;-83
2022/05/10 14:25:52;;;;;;;3.03;2.08;;;;;;;;;;5053764;28;20365;-84
2022/05/10 14:28:33;;;;;;;3.90;2.22;;;;;;;;;;5050261;28;20362;-82
2022/05/10 14:31:17;;;;;;;6.97;2.20;;;;;;;;;;5048656;28;20021;-83
2022/05/10 14:33:52;;;;;;;6.10;2.50;;;;;;;;;;5055722;28;20032;-83
2022/05/10 14:36:31;;;;;;;4.93;1.90;;;;;;;;;;5042719;28;20515;-82
2022/05/10 14:38:57;;;;;;;4.03;1.85;;;;;;;;;;5038092;28;20040;-83
2022/05/10 14:41:38;;;;;;;4.45;3.28;;;;;;;;;;5038336;28;20045;-82
2022/05/10 14:44:20;;;;;;;9.90;2.13;;;;;;;;;;5036919;28;20060;-81
2022/05/10 14:46:55;;;;;;;3.08;2.45;;;;;;;;;;5036840;28;20526;-80
2022/05/10 14:49:41;;;;;;;4.57;2.40;;;;;;;;;;5053812;28;20029;-83
2022/05/10 14:52:33;;;;;;;5.00;2.05;;;;;;;;;;5052253;28;20029;-79
2022/05/10 14:55:33;;;;;;;3.28;2.10;;;;;;;;;;5057653;28;20414;-81
2022/05/10 14:57:59;;;;;;;4.65;2.20;;;;;;;;;;5038615;28;20432;-81
2022/05/10 15:00:29;;;;;;;11.13;5.15;;;;;;;;;;5045429;28;20064;-80
2022/05/10 15:03:20;;;;;;;3.78;2.58;;;;;;;;;;5052405;28;20033;-81
2022/05/10 15:05:55;;;;;;;2.75;2.05;;;;;;;;;;5033400;28;20024;-80
2022/05/10 15:08:20;;;;;;;4.30;2.10;;;;;;;;;;5039481;28;20775;-79
2022/05/10 15:10:52;;;;;;;4.90;2.08;;;;;;;;;;5048324;28;20028;-83
2022/05/10 15:13:21;;;;;;;5.13;2.50;;;;;;;;;;5029519;28;20029;-81
2022/05/10 15:15:57;;;;;;;4.90;2.65;;;;;;;;;;5026358;28;20032;-84
2022/05/10 15:21:13;;;;;;;4.57;2.42;;;;;;;;;;5054405;28;20124;-83
2022/05/10 15:23:39;;;;;;;4.82;2.15;;;;;;;;;;5051583;28;20056;-79
2022/05/10 15:26:15;;;;;;;5.78;2.47;;;;;;;;;;5053095;28;20065;-81
2022/05/10 15:28:46;;;;;;;7.45;2.60;;;;;;;;;;5049936;28;20108;-83
2022/05/10 15:31:22;;;;;;;3.92;2.55;;;;;;;;;;5045692;28;20030;-82
2022/05/10 15:33:48;;;;;;;8.45;2.70;;;;;;;;;;5040779;28;20028;-83
2022/05/10 15:36:13;;;;;;;3.70;2.75;;;;;;;;;;5043192;28;20088;-82
2022/05/10 15:38:40;;;;;;;4.65;2.80;;;;;;;;;;5046110;28;20102;-82
2022/05/10 15:41:06;;;;;;;7.80;2.60;;;;;;;;;;5051697;28;20070;-83